Time;durP1;ratioP1;P1;durP2;ratioP2;P2;SDS_P1;SDS_P2;PMS_P1;PMS_P2;Temp;Humidity;BMP_temperature;BMP_pressure;BME280_temperature;BME280_humidity;BME280_pressure;Samples;Min_cycle;Max_cycle;Signal;HPM_P1;HPM_P2
2021/06/16 00:02:10;;;;;;;4.23;2.67;;;13.00;99.90;;;;;;5115556;27;20296;-44
2021/06/16 00:04:36;;;;;;;4.30;2.87;;;13.00;99.90;;;;;;5101655;28;20539;-51
2021/06/16 00:07:03;;;;;;;4.37;2.30;;;13.00;99.90;;;;;;5103005;27;20201;-50
2021/06/16 00:09:30;;;;;;;4.07;2.43;;;13.00;99.90;;;;;;5112075;27;20204;-49
2021/06/16 00:11:58;;;;;;;8.43;2.40;;;12.90;99.90;;;;;;5106238;27;20840;-44
2021/06/16 00:14:25;;;;;;;3.47;2.27;;;12.90;99.90;;;;;;5103846;28;20681;-51
2021/06/16 00:16:51;;;;;;;4.70;2.87;;;12.80;99.90;;;;;;5095044;27;20215;-45
2021/06/16 00:19:18;;;;;;;7.13;2.33;;;12.90;99.90;;;;;;5103469;28;20208;-44
2021/06/16 00:21:45;;;;;;;7.17;2.60;;;12.90;99.90;;;;;;5096957;27;20908;-45
2021/06/16 00:24:13;;;;;;;4.40;2.23;;;12.90;99.90;;;;;;5121784;27;20200;-45
2021/06/16 00:26:42;;;;;;;5.30;2.70;;;12.70;99.90;;;;;;5109648;27;20192;-53
2021/06/16 00:29:10;;;;;;;5.90;3.00;;;12.70;99.90;;;;;;5123764;27;20257;-43
2021/06/16 00:31:36;;;;;;;3.90;2.67;;;12.70;99.90;;;;;;5121305;27;20216;-51
2021/06/16 00:34:03;;;;;;;3.83;2.20;;;12.70;99.90;;;;;;5106176;28;20778;-44
2021/06/16 00:36:30;;;;;;;4.10;2.83;;;12.70;99.90;;;;;;5098085;28;20213;-52
2021/06/16 00:38:58;;;;;;;4.03;2.40;;;12.60;99.90;;;;;;5111097;28;20196;-44
2021/06/16 00:41:25;;;;;;;5.03;2.43;;;12.60;99.90;;;;;;5103394;28;20658;-50
2021/06/16 00:43:52;;;;;;;4.30;2.23;;;12.60;99.90;;;;;;5114803;28;20192;-49
2021/06/16 00:46:20;;;;;;;3.03;2.50;;;12.50;99.90;;;;;;5124445;28;20216;-48
2021/06/16 00:48:46;;;;;;;8.03;3.17;;;12.50;99.90;;;;;;5103721;28;20196;-45
2021/06/16 00:51:13;;;;;;;2.83;2.43;;;12.50;99.90;;;;;;5103552;28;20217;-44
2021/06/16 00:53:40;;;;;;;2.37;2.10;;;12.40;99.90;;;;;;5097060;28;20216;-50
2021/06/16 00:56:06;;;;;;;5.00;2.77;;;12.30;99.90;;;;;;5123434;28;20227;-50
2021/06/16 00:58:33;;;;;;;5.23;2.57;;;12.30;99.90;;;;;;5102765;27;20274;-51
2021/06/16 01:01:06;;;;;;;3.40;2.50;;;12.30;99.90;;;;;;5103987;28;20276;-44
2021/06/16 01:03:42;;;;;;;5.90;2.50;;;12.30;99.90;;;;;;5104568;27;20197;-53
2021/06/16 01:06:14;;;;;;;4.17;2.47;;;12.30;99.90;;;;;;5107673;28;20215;-45
2021/06/16 01:08:57;;;;;;;2.97;2.33;;;12.10;99.90;;;;;;5111408;27;20685;-52
2021/06/16 01:11:25;;;;;;;3.80;2.10;;;12.10;99.90;;;;;;5126673;27;20552;-52
2021/06/16 01:13:54;;;;;;;4.80;2.83;;;12.10;99.90;;;;;;5109211;27;20691;-44
2021/06/16 01:16:28;;;;;;;4.93;2.60;;;12.10;99.90;;;;;;5104512;27;20221;-44
2021/06/16 01:19:02;;;;;;;3.47;2.90;;;11.90;99.90;;;;;;5103053;28;20189;-43
2021/06/16 01:21:30;;;;;;;3.03;2.33;;;11.90;99.90;;;;;;5102628;27;20225;-55
2021/06/16 01:24:06;;;;;;;5.10;2.70;;;11.90;99.90;;;;;;5099308;27;20209;-47
2021/06/16 01:26:41;;;;;;;4.50;2.77;;;11.90;99.90;;;;;;5117169;27;20210;-56
2021/06/16 01:29:16;;;;;;;5.43;2.73;;;11.80;99.90;;;;;;5103243;27;20207;-47
2021/06/16 01:31:44;;;;;;;3.27;2.37;;;11.80;99.90;;;;;;5102815;28;20224;-56
2021/06/16 01:34:13;;;;;;;3.67;2.53;;;11.90;99.90;;;;;;5107201;28;20217;-45
2021/06/16 01:36:43;;;;;;;4.47;3.00;;;11.90;99.90;;;;;;5107485;27;20539;-54
2021/06/16 01:39:11;;;;;;;4.30;3.47;;;11.90;99.90;;;;;;5126834;27;20198;-43
2021/06/16 01:41:40;;;;;;;7.23;2.93;;;11.90;99.90;;;;;;5107911;27;20216;-56
2021/06/16 01:44:08;;;;;;;3.47;2.57;;;11.90;99.90;;;;;;5111839;27;20205;-55
2021/06/16 01:46:35;;;;;;;5.37;2.53;;;11.90;99.90;;;;;;5104587;28;20761;-43
2021/06/16 01:49:03;;;;;;;2.60;2.40;;;11.80;99.90;;;;;;5114181;27;20766;-55
2021/06/16 01:51:31;;;;;;;3.23;2.73;;;11.60;99.90;;;;;;5117419;27;20221;-44
2021/06/16 01:53:59;;;;;;;5.43;2.77;;;11.50;99.90;;;;;;5114573;27;20197;-55
2021/06/16 01:56:27;;;;;;;5.50;3.57;;;11.60;99.90;;;;;;5096040;27;20201;-47
2021/06/16 01:58:56;;;;;;;6.23;2.57;;;11.50;99.90;;;;;;5121831;27;20608;-46
2021/06/16 02:01:24;;;;;;;4.70;2.90;;;11.40;99.90;;;;;;5101549;27;20216;-48
2021/06/16 02:03:53;;;;;;;7.60;2.43;;;11.40;99.90;;;;;;5106636;28;20193;-44
2021/06/16 02:06:22;;;;;;;3.03;2.50;;;11.30;99.90;;;;;;5102202;28;20225;-44
2021/06/16 02:08:50;;;;;;;4.40;2.47;;;11.40;99.90;;;;;;5102362;27;20697;-46
2021/06/16 02:11:20;;;;;;;3.57;2.40;;;11.40;99.90;;;;;;5090753;27;21852;-49
2021/06/16 02:13:50;;;;;;;3.20;2.90;;;11.40;99.90;;;;;;5126304;27;20192;-44
2021/06/16 02:16:23;;;;;;;6.10;2.50;;;11.40;99.90;;;;;;5114499;27;20196;-46
2021/06/16 02:18:55;;;;;;;4.87;2.80;;;11.40;99.90;;;;;;5126190;27;20193;-49
2021/06/16 02:21:24;;;;;;;4.60;2.60;;;;;;;;;;5108495;27;20306;-48
2021/06/16 02:23:54;;;;;;;4.63;3.23;;;;;;;;;;5108602;27;20197;-51
2021/06/16 02:26:23;;;;;;;6.37;2.97;;;;;;;;;;5122448;27;20204;-43
2021/06/16 02:28:52;;;;;;;3.50;2.93;;;;;;;;;;5111348;27;20272;-44
2021/06/16 02:31:21;;;;;;;3.93;2.43;;;;;;;;;;5107819;27;20224;-45
2021/06/16 02:33:51;;;;;;;4.10;2.67;;;;;;;;;;5107952;27;20197;-44
2021/06/16 02:36:20;;;;;;;2.90;2.50;;;10.90;99.90;;;;;;5122471;27;20188;-49
2021/06/16 02:38:49;;;;;;;5.17;2.83;;;10.90;99.90;;;;;;5115731;27;20194;-45
2021/06/16 02:41:16;;;;;;;3.37;2.97;;;10.90;99.90;;;;;;5101746;28;20817;-47
2021/06/16 02:43:43;;;;;;;6.53;2.73;;;10.90;99.90;;;;;;5106875;27;20499;-45
2021/06/16 02:46:12;;;;;;;2.63;2.33;;;11.00;99.90;;;;;;5110938;27;20217;-54
2021/06/16 02:48:42;;;;;;;3.57;2.37;;;11.00;99.90;;;;;;5125663;27;20192;-47
2021/06/16 02:51:12;;;;;;;4.07;2.53;;;11.10;99.90;;;;;;5123187;27;20261;-56
2021/06/16 02:53:40;;;;;;;3.50;2.53;;;11.00;99.90;;;;;;5125674;27;20189;-43
2021/06/16 02:56:08;;;;;;;4.30;3.30;;;11.10;99.90;;;;;;5110890;27;20200;-54
2021/06/16 02:58:37;;;;;;;4.80;2.80;;;11.10;99.90;;;;;;5112774;27;20199;-47
2021/06/16 03:01:05;;;;;;;3.93;2.60;;;11.10;99.90;;;;;;5098222;27;20237;-54
2021/06/16 03:03:33;;;;;;;3.20;2.70;;;11.20;99.90;;;;;;5117141;27;20924;-46
2021/06/16 03:06:02;;;;;;;2.77;2.57;;;11.20;99.90;;;;;;5124479;27;20212;-54
2021/06/16 03:08:30;;;;;;;3.60;2.87;;;11.10;99.90;;;;;;5123941;27;20188;-43
2021/06/16 03:11:00;;;;;;;4.27;2.60;;;10.90;99.90;;;;;;5106816;27;20618;-55
2021/06/16 03:13:29;;;;;;;4.37;3.10;;;11.00;99.90;;;;;;5103585;27;20185;-48
2021/06/16 03:15:56;;;;;;;3.90;3.20;;;10.90;99.90;;;;;;5097994;27;20204;-49
2021/06/16 03:18:23;;;;;;;4.87;3.20;;;10.90;99.90;;;;;;5109974;27;20211;-49
2021/06/16 03:20:54;;;;;;;6.00;3.00;;;10.90;99.90;;;;;;5124807;27;20212;-47
2021/06/16 03:23:23;;;;;;;4.93;2.77;;;10.80;99.90;;;;;;5119057;27;20197;-51
2021/06/16 03:25:50;;;;;;;5.00;3.07;;;10.90;99.90;;;;;;5117111;27;20217;-44
2021/06/16 03:28:18;;;;;;;6.00;3.10;;;10.80;99.90;;;;;;5093249;27;20189;-45
2021/06/16 03:30:45;;;;;;;4.93;2.93;;;10.70;99.90;;;;;;5093440;27;20221;-46
2021/06/16 03:33:13;;;;;;;4.93;3.00;;;10.70;99.90;;;;;;5107694;27;20209;-49
2021/06/16 03:35:40;;;;;;;4.60;2.97;;;10.70;99.90;;;;;;5112612;27;20193;-47
2021/06/16 03:38:08;;;;;;;3.73;3.10;;;10.70;99.90;;;;;;5101990;28;20290;-51
2021/06/16 03:40:36;;;;;;;4.23;3.07;;;10.70;99.90;;;;;;5102994;28;20296;-45
2021/06/16 03:43:03;;;;;;;3.53;3.23;;;10.70;99.90;;;;;;5098887;27;20201;-49
2021/06/16 03:45:31;;;;;;;4.27;2.87;;;10.70;99.90;;;;;;5096963;27;22330;-44
2021/06/16 03:48:00;;;;;;;4.47;3.00;;;10.60;99.90;;;;;;5120464;27;20193;-47
2021/06/16 03:50:28;;;;;;;4.30;3.20;;;10.60;99.90;;;;;;5116457;27;20238;-45
2021/06/16 03:52:56;;;;;;;4.23;3.17;;;10.70;99.90;;;;;;5125042;27;20669;-50
2021/06/16 03:55:23;;;;;;;3.77;2.73;;;10.70;99.90;;;;;;5120863;27;20188;-48
2021/06/16 03:57:52;;;;;;;3.70;2.57;;;10.70;99.90;;;;;;5113315;27;20204;-47
2021/06/16 04:00:20;;;;;;;6.87;3.37;;;10.80;99.90;;;;;;5088609;27;20228;-47
2021/06/16 04:02:48;;;;;;;4.07;3.17;;;10.80;99.90;;;;;;5124817;27;20704;-44
2021/06/16 04:05:16;;;;;;;6.83;3.53;;;10.80;99.90;;;;;;5114803;27;20200;-46
2021/06/16 04:07:48;;;;;;;4.23;3.20;;;10.80;99.90;;;;;;5104482;27;20221;-45
2021/06/16 04:10:15;;;;;;;4.57;3.00;;;10.90;99.90;;;;;;5099530;28;20174;-47
2021/06/16 04:12:42;;;;;;;6.27;3.43;;;11.00;99.90;;;;;;5103776;28;20199;-45
2021/06/16 04:15:11;;;;;;;5.67;3.50;;;11.00;99.90;;;;;;5095940;27;20212;-51
2021/06/16 04:17:38;;;;;;;5.00;3.27;;;11.10;99.90;;;;;;5107404;27;20578;-47
2021/06/16 04:20:07;;;;;;;4.10;2.90;;;11.10;99.90;;;;;;5108975;27;20208;-51
2021/06/16 04:22:35;;;;;;;5.33;3.37;;;11.20;99.90;;;;;;5102795;28;20922;-47
2021/06/16 04:25:02;;;;;;;3.60;2.87;;;11.30;99.90;;;;;;5117586;27;20287;-48
2021/06/16 04:27:28;;;;;;;3.40;3.17;;;11.30;99.90;;;;;;5120667;27;20212;-49
2021/06/16 04:29:55;;;;;;;4.87;3.10;;;11.30;99.90;;;;;;5112473;27;20197;-48
2021/06/16 04:32:23;;;;;;;5.13;3.03;;;11.40;99.90;;;;;;5098233;27;20537;-48
2021/06/16 04:34:49;;;;;;;8.43;3.43;;;11.40;99.90;;;;;;5123998;27;20526;-46
2021/06/16 04:37:16;;;;;;;4.90;3.00;;;11.50;99.90;;;;;;5115091;27;20192;-44
2021/06/16 04:39:43;;;;;;;8.50;3.30;;;11.50;99.90;;;;;;5120249;27;20190;-52
2021/06/16 04:42:10;;;;;;;5.83;3.60;;;11.70;99.90;;;;;;5100426;28;20213;-49
2021/06/16 04:44:36;;;;;;;5.17;3.60;;;11.70;99.90;;;;;;5108685;28;20200;-45
2021/06/16 04:47:04;;;;;;;5.97;2.97;;;11.80;99.90;;;;;;5100833;28;20217;-48
2021/06/16 04:49:32;;;;;;;5.40;3.23;;;11.90;99.90;;;;;;5116474;28;20207;-48
2021/06/16 04:51:58;;;;;;;6.50;3.53;;;12.00;99.90;;;;;;5105902;28;20227;-48
2021/06/16 04:54:25;;;;;;;5.20;3.13;;;12.10;99.90;;;;;;5115056;28;20197;-48
2021/06/16 04:56:52;;;;;;;5.13;3.30;;;12.20;99.90;;;;;;5098449;27;20199;-47
2021/06/16 04:59:18;;;;;;;4.67;3.50;;;12.30;99.90;;;;;;5109488;27;20929;-43
2021/06/16 05:01:45;;;;;;;6.87;2.70;;;12.40;99.90;;;;;;5101169;27;20221;-44
2021/06/16 05:04:12;;;;;;;3.33;2.73;;;12.40;99.90;;;;;;5100041;27;20205;-55
2021/06/16 05:06:40;;;;;;;4.57;3.50;;;12.60;99.90;;;;;;5104336;27;20224;-47
2021/06/16 05:09:06;;;;;;;5.17;3.50;;;12.60;99.90;;;;;;5125022;27;20574;-51
2021/06/16 05:11:33;;;;;;;4.83;3.30;;;12.80;99.90;;;;;;5127221;27;20196;-50
2021/06/16 05:14:00;;;;;;;5.07;3.73;;;12.90;99.90;;;;;;5107791;27;20366;-45
2021/06/16 05:16:26;;;;;;;6.07;3.43;;;13.00;99.90;;;;;;5112089;27;20197;-49
2021/06/16 05:18:53;;;;;;;6.50;3.57;;;13.10;99.90;;;;;;5103466;27;20794;-42
2021/06/16 05:21:20;;;;;;;3.90;3.20;;;13.20;99.90;;;;;;5110015;27;20234;-44
2021/06/16 05:23:48;;;;;;;4.57;3.20;;;13.30;99.90;;;;;;5109754;27;20197;-49
2021/06/16 05:26:15;;;;;;;3.63;3.20;;;13.30;99.90;;;;;;5122959;27;20275;-44
2021/06/16 05:28:42;;;;;;;4.77;3.20;;;13.40;99.90;;;;;;5119300;27;20193;-54
2021/06/16 05:31:09;;;;;;;4.97;3.33;;;13.60;99.90;;;;;;5122717;27;20228;-50
2021/06/16 05:33:36;;;;;;;7.17;3.23;;;13.70;99.90;;;;;;5111131;27;20689;-50
2021/06/16 05:36:04;;;;;;;4.23;3.10;;;13.80;99.90;;;;;;5133188;27;20274;-45
2021/06/16 05:38:31;;;;;;;4.47;3.23;;;13.90;99.90;;;;;;5111797;27;20568;-56
2021/06/16 05:40:59;;;;;;;7.73;3.63;;;14.10;99.90;;;;;;5131835;27;20299;-45
2021/06/16 05:43:25;;;;;;;4.00;2.80;;;14.10;99.90;;;;;;5144145;27;20196;-45
2021/06/16 05:45:52;;;;;;;6.40;3.00;;;14.20;99.90;;;;;;5130178;27;20188;-50
2021/06/16 05:48:19;;;;;;;4.57;2.70;;;14.30;99.90;;;;;;5106792;27;20279;-48
2021/06/16 05:50:45;;;;;;;2.50;2.30;;;14.50;99.90;;;;;;5120893;27;20712;-55
2021/06/16 05:53:12;;;;;;;3.57;2.30;;;14.60;99.90;;;;;;5108207;27;20193;-43
2021/06/16 05:55:39;;;;;;;5.77;2.40;;;14.70;99.90;;;;;;5124700;27;20201;-57
2021/06/16 05:58:07;;;;;;;2.80;2.30;;;14.80;99.90;;;;;;5121190;27;20196;-45
2021/06/16 06:00:33;;;;;;;8.53;2.23;;;14.90;99.90;;;;;;5118353;27;20565;-49
2021/06/16 06:03:01;;;;;;;5.47;2.13;;;15.00;99.90;;;;;;5118080;27;20201;-49
2021/06/16 06:05:28;;;;;;;6.73;2.17;;;15.10;99.90;;;;;;5105921;27;20201;-55
2021/06/16 06:07:55;;;;;;;4.50;2.10;;;15.30;99.90;;;;;;5109655;27;20217;-42
2021/06/16 06:10:21;;;;;;;6.33;2.00;;;15.50;99.90;;;;;;5122987;27;20224;-48
2021/06/16 06:12:48;;;;;;;2.97;2.00;;;15.50;99.90;;;;;;5136357;27;20896;-45
2021/06/16 06:15:16;;;;;;;5.43;2.17;;;15.70;99.90;;;;;;5112103;27;20200;-46
2021/06/16 06:17:43;;;;;;;7.63;1.60;;;15.90;99.90;;;;;;5117755;27;20286;-54
2021/06/16 06:20:11;;;;;;;3.23;1.60;;;16.00;99.90;;;;;;5107418;27;20213;-45
2021/06/16 06:22:38;;;;;;;4.97;1.70;;;16.10;99.90;;;;;;5124519;27;20739;-53
2021/06/16 06:25:05;;;;;;;2.63;1.80;;;16.20;99.90;;;;;;5111476;27;20207;-49
2021/06/16 06:27:32;;;;;;;4.00;1.47;;;16.30;99.90;;;;;;5121571;27;20570;-58
2021/06/16 06:29:59;;;;;;;4.03;1.67;;;16.40;99.90;;;;;;5137160;27;20199;-46
2021/06/16 06:32:27;;;;;;;2.53;1.43;;;16.50;99.90;;;;;;5120122;27;20200;-44
2021/06/16 06:34:53;;;;;;;3.17;1.50;;;16.70;99.90;;;;;;5099551;27;22202;-53
2021/06/16 06:37:20;;;;;;;2.20;1.40;;;16.80;99.90;;;;;;5104052;27;20212;-46
2021/06/16 06:39:49;;;;;;;5.40;1.50;;;16.90;99.90;;;;;;5115532;27;20216;-53
2021/06/16 06:42:16;;;;;;;6.20;1.87;;;17.00;99.90;;;;;;5103158;27;20244;-46
2021/06/16 06:44:43;;;;;;;2.43;1.30;;;17.20;99.90;;;;;;5130437;27;20204;-54
2021/06/16 06:47:10;;;;;;;3.03;1.40;;;;;;;;;;5126317;27;20771;-46
2021/06/16 06:49:38;;;;;;;2.47;1.40;;;17.30;99.90;;;;;;5107411;27;20211;-45
2021/06/16 06:52:05;;;;;;;5.23;1.90;;;17.40;99.90;;;;;;5105591;27;20222;-45
2021/06/16 06:54:33;;;;;;;3.27;1.20;;;17.60;99.90;;;;;;5106080;27;20216;-48
2021/06/16 06:57:00;;;;;;;3.07;1.40;;;17.60;99.90;;;;;;5100914;27;20679;-54
2021/06/16 06:59:26;;;;;;;2.50;1.30;;;17.70;99.90;;;;;;5109449;27;20204;-50
2021/06/16 07:01:53;;;;;;;1.50;1.40;;;17.80;99.90;;;;;;5105740;27;21739;-50
2021/06/16 07:04:21;;;;;;;2.50;1.17;;;17.90;99.90;;;;;;5117965;27;20213;-48
2021/06/16 07:06:50;;;;;;;5.20;1.67;;;18.00;99.90;;;;;;5103833;27;20208;-56
2021/06/16 07:09:17;;;;;;;2.37;1.40;;;18.20;99.90;;;;;;5134022;27;20637;-47
2021/06/16 07:11:43;;;;;;;2.67;1.73;;;18.30;99.90;;;;;;5116710;27;20287;-57
2021/06/16 07:14:10;;;;;;;6.63;1.57;;;18.40;99.90;;;;;;5131287;27;20294;-48
2021/06/16 07:16:37;;;;;;;2.47;1.40;;;18.50;99.90;;;;;;5116877;27;20193;-55
2021/06/16 07:19:03;;;;;;;3.90;1.50;;;18.60;99.90;;;;;;5116780;27;20301;-48
2021/06/16 07:21:30;;;;;;;3.97;1.20;;;18.60;99.90;;;;;;5111291;27;20704;-48
2021/06/16 07:23:58;;;;;;;4.30;1.50;;;18.60;99.90;;;;;;5115102;27;20197;-52
2021/06/16 07:26:25;;;;;;;3.10;1.47;;;18.70;99.90;;;;;;5121607;27;20676;-48
2021/06/16 07:28:51;;;;;;;3.50;1.70;;;18.80;99.90;;;;;;5109230;27;20209;-54
2021/06/16 07:31:18;;;;;;;3.83;1.47;;;18.90;99.90;;;;;;5112630;27;20224;-49
2021/06/16 07:33:45;;;;;;;5.23;1.63;;;19.00;99.90;;;;;;5117953;27;20185;-56
2021/06/16 07:36:11;;;;;;;24.27;2.73;;;19.10;99.90;;;;;;5105817;27;20209;-45
2021/06/16 07:38:38;;;;;;;3.33;1.57;;;19.10;99.90;;;;;;5118809;27;20825;-55
2021/06/16 07:41:06;;;;;;;2.43;1.17;;;19.20;99.90;;;;;;5106996;27;20224;-50
2021/06/16 07:43:33;;;;;;;4.57;1.63;;;19.40;99.90;;;;;;5117842;27;20191;-55
2021/06/16 07:45:59;;;;;;;3.50;1.53;;;19.50;99.90;;;;;;5118215;27;20227;-44
2021/06/16 07:48:26;;;;;;;2.80;1.30;;;19.40;99.90;;;;;;5108363;27;20224;-45
2021/06/16 07:50:52;;;;;;;5.73;1.53;;;19.50;99.90;;;;;;5123442;27;20216;-52
2021/06/16 07:53:20;;;;;;;6.57;1.40;;;;;;;;;;5097658;27;20204;-50
2021/06/16 07:55:47;;;;;;;3.20;1.50;;;19.70;99.90;;;;;;5111824;27;20196;-54
2021/06/16 07:58:15;;;;;;;6.07;1.97;;;19.80;99.90;;;;;;5103029;27;20201;-53
2021/06/16 08:00:41;;;;;;;4.53;1.30;;;19.90;99.90;;;;;;5113122;27;20231;-54
2021/06/16 08:03:08;;;;;;;3.20;1.03;;;20.00;99.90;;;;;;5120779;27;20188;-50
2021/06/16 08:05:35;;;;;;;4.03;1.33;;;;;;;;;;5122877;27;20227;-53
2021/06/16 08:08:02;;;;;;;2.97;1.33;;;;;;;;;;5094653;27;20224;-49
2021/06/16 08:10:31;;;;;;;3.83;1.33;;;;;;;;;;5123401;27;20215;-46
2021/06/16 08:12:58;;;;;;;3.40;1.20;;;;;;;;;;5107056;27;20935;-47
2021/06/16 08:15:27;;;;;;;4.37;1.57;;;;;;;;;;5110360;27;20696;-48
2021/06/16 08:17:54;;;;;;;12.27;1.90;;;20.70;99.90;;;;;;5107129;27;20188;-49
2021/06/16 08:20:21;;;;;;;2.20;1.20;;;20.80;96.40;;;;;;5112897;27;20244;-45
2021/06/16 08:22:48;;;;;;;3.83;1.50;;;20.70;95.30;;;;;;5090076;27;20204;-55
2021/06/16 08:25:14;;;;;;;4.00;1.30;;;20.70;94.30;;;;;;5116074;27;20566;-48
2021/06/16 08:27:42;;;;;;;2.80;1.30;;;20.80;92.60;;;;;;5114688;27;20215;-54
2021/06/16 08:30:11;;;;;;;2.47;1.13;;;20.80;91.70;;;;;;5109352;27;20212;-45
2021/06/16 08:32:39;;;;;;;3.10;1.17;;;20.90;91.50;;;;;;5123195;27;20646;-52
2021/06/16 08:35:06;;;;;;;7.30;1.20;;;20.90;90.70;;;;;;5120529;27;20199;-49
2021/06/16 08:37:33;;;;;;;2.23;0.97;;;21.10;90.10;;;;;;5097269;27;20220;-54
2021/06/16 08:40:00;;;;;;;6.37;1.60;;;21.20;90.50;;;;;;5113030;27;20938;-47
2021/06/16 08:42:26;;;;;;;2.90;1.20;;;21.30;90.60;;;;;;5123894;28;20680;-50
2021/06/16 08:44:55;;;;;;;1.97;1.00;;;21.30;90.80;;;;;;5113089;28;20198;-49
2021/06/16 08:47:22;;;;;;;3.57;1.10;;;21.50;90.10;;;;;;5113766;28;20220;-48
2021/06/16 08:49:51;;;;;;;3.77;1.40;;;21.50;90.10;;;;;;5120287;28;20192;-56
2021/06/16 08:52:18;;;;;;;4.07;1.30;;;21.60;89.00;;;;;;5098552;27;20216;-44
2021/06/16 08:54:45;;;;;;;3.50;1.20;;;21.70;87.40;;;;;;5111936;27;20196;-57
2021/06/16 08:57:12;;;;;;;1.77;1.20;;;21.70;86.90;;;;;;5100369;28;20717;-45
2021/06/16 08:59:39;;;;;;;3.63;1.57;;;21.70;86.40;;;;;;5109338;27;20661;-53
2021/06/16 09:02:06;;;;;;;2.73;1.07;;;21.90;86.60;;;;;;5117964;27;21165;-46
2021/06/16 09:04:47;;;;;;;3.93;1.13;;;22.00;84.60;;;;;;5109556;27;20199;-56
2021/06/16 09:07:17;;;;;;;2.67;1.23;;;22.10;81.70;;;;;;5111382;27;20205;-49
2021/06/16 09:09:44;;;;;;;2.93;1.20;;;22.00;80.50;;;;;;5098708;27;20211;-57
2021/06/16 09:12:13;;;;;;;5.40;1.50;;;21.90;81.80;;;;;;5122353;27;20213;-47
2021/06/16 09:14:51;;;;;;;5.07;1.20;;;22.00;81.20;;;;;;5116623;27;20697;-55
2021/06/16 09:17:20;;;;;;;1.57;1.10;;;22.00;80.10;;;;;;5125555;27;20212;-50
2021/06/16 09:19:52;;;;;;;3.20;1.47;;;22.20;80.60;;;;;;5112035;27;20232;-57
2021/06/16 09:22:29;;;;;;;3.73;1.47;;;22.30;79.50;;;;;;5120481;27;20209;-47
2021/06/16 09:24:57;;;;;;;2.90;1.17;;;22.30;79.30;;;;;;5112055;27;20248;-48
2021/06/16 09:27:44;;;;;;;1.60;1.27;;;22.40;79.10;;;;;;5120458;27;20280;-47
2021/06/16 09:30:35;;;;;;;5.10;1.40;;;22.60;76.50;;;;;;5123803;27;20203;-48
2021/06/16 09:33:07;;;;;;;1.50;1.00;;;22.50;76.40;;;;;;5112214;27;20227;-45
2021/06/16 09:35:35;;;;;;;2.40;1.20;;;22.50;75.80;;;;;;5127233;27;20208;-55
2021/06/16 09:38:07;;;;;;;5.93;1.60;;;22.40;75.30;;;;;;5122118;27;20198;-50
2021/06/16 09:40:36;;;;;;;2.10;1.30;;;22.60;76.10;;;;;;5108465;27;20223;-53
2021/06/16 09:43:04;;;;;;;2.33;1.30;;;22.70;76.40;;;;;;5109339;27;20205;-45
2021/06/16 09:45:32;;;;;;;6.10;1.47;;;22.80;76.20;;;;;;5134881;27;20368;-56
2021/06/16 09:47:59;;;;;;;2.80;1.23;;;22.90;75.90;;;;;;5121898;27;22714;-47
2021/06/16 09:50:27;;;;;;;3.10;1.30;;;22.90;75.90;;;;;;5111695;27;20228;-55
2021/06/16 09:52:54;;;;;;;4.70;1.60;;;23.00;75.70;;;;;;5105328;27;20429;-49
2021/06/16 09:55:29;;;;;;;3.57;1.87;;;23.10;76.40;;;;;;5117277;27;20188;-45
2021/06/16 09:58:00;;;;;;;4.47;1.73;;;23.20;75.00;;;;;;5115640;27;20208;-48
2021/06/16 10:00:32;;;;;;;5.00;1.50;;;23.10;74.20;;;;;;5113827;27;20697;-55
2021/06/16 10:03:08;;;;;;;3.50;1.57;;;23.20;74.10;;;;;;5125263;27;20206;-44
2021/06/16 10:05:35;;;;;;;3.58;1.65;;;23.30;74.60;;;;;;5106096;27;20263;-49
2021/06/16 10:08:02;;;;;;;3.83;1.30;;;23.40;74.30;;;;;;5122788;27;20235;-57
2021/06/16 10:10:30;;;;;;;2.80;1.23;;;23.40;73.90;;;;;;5121454;27;20218;-45
2021/06/16 10:12:57;;;;;;;3.42;1.33;;;23.30;73.70;;;;;;5121354;27;20205;-52
2021/06/16 10:15:23;;;;;;;1.52;1.20;;;23.40;74.70;;;;;;5110502;27;20190;-51
2021/06/16 10:17:51;;;;;;;3.75;1.40;;;23.60;76.00;;;;;;5117262;27;20568;-48
2021/06/16 10:20:20;;;;;;;3.28;1.30;;;23.70;73.50;;;;;;5100556;27;20293;-56
2021/06/16 10:22:49;;;;;;;2.58;1.27;;;23.70;73.20;;;;;;5120567;27;20216;-48
2021/06/16 10:25:16;;;;;;;3.45;1.30;;;23.70;73.10;;;;;;5126994;27;20244;-55
2021/06/16 10:27:53;;;;;;;2.97;1.60;;;23.90;73.10;;;;;;5126268;27;20192;-47
2021/06/16 10:30:23;;;;;;;1.30;1.08;;;24.10;71.60;;;;;;5130811;27;20197;-53
2021/06/16 10:32:51;;;;;;;3.30;1.70;;;23.90;70.80;;;;;;5116862;27;20220;-51
2021/06/16 10:35:35;;;;;;;5.70;1.42;;;23.90;70.60;;;;;;5094176;27;20215;-57
2021/06/16 10:38:11;;;;;;;1.10;1.00;;;24.00;70.00;;;;;;5113473;27;20200;-56
2021/06/16 10:40:46;;;;;;;4.32;1.38;;;24.10;70.00;;;;;;5109726;27;20209;-49
2021/06/16 10:43:31;;;;;;;5.25;1.35;;;24.10;68.40;;;;;;5106395;27;20205;-54
2021/06/16 10:46:04;;;;;;;2.65;1.48;;;24.20;68.40;;;;;;5111615;27;20204;-51
2021/06/16 10:49:00;;;;;;;3.53;1.55;;;24.20;67.80;;;;;;5124572;27;20219;-49
2021/06/16 10:51:32;;;;;;;2.65;1.35;;;24.10;68.40;;;;;;5096387;27;20421;-47
2021/06/16 10:54:14;;;;;;;3.78;1.20;;;24.10;68.50;;;;;;5123643;27;20204;-52
2021/06/16 10:56:43;;;;;;;4.63;1.33;;;24.30;68.50;;;;;;5112953;27;20249;-53
2021/06/16 10:59:11;;;;;;;2.33;1.50;;;24.40;66.90;;;;;;5125236;27;20188;-57
2021/06/16 11:01:50;;;;;;;1.20;1.10;;;;;;;;;;5110004;27;20221;-48
2021/06/16 11:04:30;;;;;;;5.10;1.73;;;24.50;67.50;;;;;;5107951;27;20250;-57
2021/06/16 11:06:57;;;;;;;2.55;1.20;;;24.70;66.30;;;;;;5120801;27;20200;-51
2021/06/16 11:09:53;;;;;;;1.50;1.10;;;24.70;66.40;;;;;;5099926;27;20204;-50
2021/06/16 11:12:29;;;;;;;3.47;1.63;;;24.80;68.50;;;;;;5117180;27;20220;-47
2021/06/16 11:14:58;;;;;;;2.33;1.48;;;25.00;67.20;;;;;;5108626;27;20207;-47
2021/06/16 11:17:45;;;;;;;4.53;1.65;;;25.00;66.50;;;;;;5111320;27;20184;-45
2021/06/16 11:20:14;;;;;;;3.10;1.33;;;25.00;63.50;;;;;;5106796;27;20254;-55
2021/06/16 11:22:48;;;;;;;3.60;1.38;;;25.00;64.20;;;;;;5103163;27;20288;-49
2021/06/16 11:25:38;;;;;;;3.22;1.58;;;25.10;63.20;;;;;;5107379;27;20190;-58
2021/06/16 11:28:11;;;;;;;2.75;1.30;;;25.10;65.20;;;;;;5107219;27;20205;-52
2021/06/16 11:30:48;;;;;;;3.83;1.70;;;25.30;63.00;;;;;;5117201;27;20212;-45
2021/06/16 11:33:49;;;;;;;2.85;1.25;;;25.30;62.30;;;;;;5112659;27;20752;-56
2021/06/16 11:36:19;;;;;;;3.35;1.73;;;25.30;61.50;;;;;;5055160;28;20207;-54
2021/06/16 11:38:55;;;;;;;2.85;1.38;;;25.30;62.10;;;;;;5040296;28;20206;-50
2021/06/16 11:41:24;;;;;;;4.07;1.52;;;25.40;62.90;;;;;;5104507;27;20220;-54
2021/06/16 11:43:52;;;;;;;2.25;1.23;;;25.40;62.40;;;;;;5108416;27;20888;-48
2021/06/16 11:46:26;;;;;;;2.20;1.85;;;25.40;62.30;;;;;;5107686;27;20204;-46
2021/06/16 11:49:01;;;;;;;1.90;1.70;;;25.40;61.90;;;;;;5115499;27;21197;-45
2021/06/16 11:51:33;;;;;;;2.60;1.50;;;25.60;60.80;;;;;;5112014;27;20243;-54
2021/06/16 11:54:22;;;;;;;2.30;1.30;;;25.80;60.70;;;;;;5110035;27;20207;-51
2021/06/16 11:56:52;;;;;;;2.35;1.95;;;25.80;58.60;;;;;;5116503;27;20201;-45
2021/06/16 11:59:33;;;;;;;2.13;1.38;;;25.70;59.20;;;;;;5122040;27;20554;-47
2021/06/16 12:02:10;;;;;;;2.60;1.63;;;25.80;60.10;;;;;;5110959;27;20215;-52
2021/06/16 12:04:55;;;;;;;3.28;1.92;;;25.80;59.90;;;;;;5122346;27;20203;-56
2021/06/16 12:07:25;;;;;;;4.30;1.75;;;25.90;59.70;;;;;;5112044;27;20196;-56
2021/06/16 12:09:53;;;;;;;3.13;2.15;;;25.80;60.10;;;;;;5102623;27;20545;-51
2021/06/16 12:12:20;;;;;;;2.55;1.77;;;25.90;60.40;;;;;;5109981;27;20315;-51
2021/06/16 12:14:47;;;;;;;7.57;2.30;;;25.90;62.10;;;;;;5123110;27;20232;-48
2021/06/16 12:17:15;;;;;;;5.18;2.55;;;26.20;61.40;;;;;;5118211;27;20192;-48
2021/06/16 12:19:42;;;;;;;2.17;2.00;;;26.30;62.30;;;;;;5110095;27;20793;-46
2021/06/16 12:22:10;;;;;;;4.20;2.13;;;26.40;61.20;;;;;;5111755;27;20224;-50
2021/06/16 12:24:38;;;;;;;2.30;2.10;;;26.30;60.60;;;;;;5099889;27;20276;-56
2021/06/16 12:27:08;;;;;;;4.55;2.10;;;26.30;62.00;;;;;;5117207;27;20542;-54
2021/06/16 12:29:38;;;;;;;1.98;1.77;;;26.50;62.60;;;;;;5103118;27;20299;-55
2021/06/16 12:32:07;;;;;;;3.25;2.05;;;26.60;62.40;;;;;;5123241;27;20221;-49
2021/06/16 12:34:51;;;;;;;2.13;1.83;;;26.80;62.10;;;;;;5116785;27;20466;-55
2021/06/16 12:37:18;;;;;;;3.00;2.00;;;27.10;61.20;;;;;;5106596;27;20431;-49
2021/06/16 12:40:00;;;;;;;2.08;1.88;;;27.20;60.30;;;;;;5101460;27;20944;-49
2021/06/16 12:42:41;;;;;;;2.15;1.90;;;27.20;59.00;;;;;;5116081;27;20184;-52
2021/06/16 12:45:30;;;;;;;2.78;2.08;;;27.10;58.90;;;;;;5104204;27;20201;-49
2021/06/16 12:47:59;;;;;;;3.00;2.15;;;27.40;60.60;;;;;;5103183;28;20189;-50
2021/06/16 12:50:35;;;;;;;2.38;2.10;;;27.80;58.60;;;;;;5114944;28;20685;-54
2021/06/16 12:53:14;;;;;;;3.85;2.10;;;27.90;58.60;;;;;;5113904;28;20207;-46
2021/06/16 12:55:46;;;;;;;2.40;1.83;;;28.30;58.90;;;;;;5105232;27;20509;-49
2021/06/16 12:58:12;;;;;;;2.60;2.40;;;28.50;57.90;;;;;;5121088;27;20562;-50
2021/06/16 13:00:39;;;;;;;2.10;2.00;;;28.80;57.90;;;;;;5112788;27;20224;-55
2021/06/16 13:03:14;;;;;;;5.38;2.40;;;29.20;57.10;;;;;;5120123;27;20654;-45